Aviation Digital Data Service (ADDS)

Output produced by METARs form (0143 UTC 23 November 2017)
found at http://www.aviationweather.gov/adds/metars/
 
TAF TUPJ 222300Z 2300/2324 09008KT 9999 SCT020 
     PROB40 
     TEMPO 2202/2314 SHRA